Aérodrome :







RETROUVEZ-NOUS SUR...

 
LOGIN :

S'inscrire | Disclaimer

   EN    FR    IT 

 









Légende :    VFR   VFR Marginal   IFR   IFR Intensif   IFR Très Intensif
Visi : 
Plafond : 
>= 8 km
>= 3000ft
5 à 8 km
1000 à 3000 ft
1500m à 5 km
500 à 1000 ft
800 à 1500m
200 à 500 ft
< 800m
< 200 ft
Symboles :   Orages  Brouillard  Fortes neiges  Fortes précipitations  Vent > 20 kt






- Altitude de l'aérodrome : 1009 ft
- Code IATA : ORH


KORH - Worcester Regional

DERNIER METAR :
  • 151754Z 25014G20KT 10SM CLR 07/M07 A3005 RMK AO2 SLP186 T00671067 10067 21022 56020

METARs EXPIRÉS :
  • 151654Z 24015KT 10SM CLR 06/M06 A3008 RMK AO2 SLP194 T00611061
  • 151554Z 25011G19KT 10SM CLR 06/M07 A3009 RMK AO2 SLP200 T00561067

TAF KORH
Valide du 15 à 18h jusqu'au 16 à 18h UTC


151720Z 1518/1618 24010G17KT P6SM SKC
FM152000 25009KT P6SM SKC
FM160100 28009KT P6SM FEW040
FM160600 36011G22KT P6SM SCT040
FM161500 36010KT P6SM FEW200



MET'MAP, la Météo Aéronautique d'un coup d'oeil ! - Copyright ORBIFLY Décembre 2007 - Disclaimer

ORBIFLY MET'MAP TEAM :

Programmation & Développement : Alexandra Zaïnal
Conception & Développement : Baudouin d'Aumeries
Co-Programmation & Développement : Marc-Olivier Méhu
Soutien technique & logistique : Manuel Goepfert

Contact : metmap@orbifly.com




SOURCES & CREDITS :

   NOAA